Alcyone — WCO6628 — position and weather

sailwx.info

Track history (hours):
 
Tides and Currents Weather Stations Pressure Air Temp Water Temp Dewpoint Dewpoint Depression Visibility Wind Speed Wind Dir Waves Ship Positions

Alcyone

Owner: MUTO, HIRONAO, LA PALMA, CA. More information available from US FCC via Universal Licensing System and Coast Guard Vessel Documentation Center.

Last reported at 2018-May-14 21:17 UTC. Time now 2018-Jun-22 01:25 UTC.
Position N 38°51' W 076°32'.
Warning: this ship's position is 38 days out of date.

Type: Pleasure craft. MMSI: 338071737.

Date/timePositionNaut miles runAvg speedWind from/ knotsBaromVisibWave heightAir tempDewpointWater temp
2018-May-14 21:17N 38°51' W 076°32'1 2.3
2018-May-14 21:00N 38°51' W 076°32'3 5.6
2018-May-14 20:31N 38°52' W 076°29'50 1.6
2018-May-13 14:02N 38°02' W 076°24'2 5.0
2018-May-13 13:41N 38°03' W 076°27'2 5.2
2018-May-13 13:19N 38°03' W 076°29'2 5.4
2018-May-13 12:54N 38°02' W 076°32'1 3.7
2018-May-13 12:30N 38°01' W 076°32'0 0.0
2018-May-12 17:44N 38°01' W 076°33'0 0.1
2018-May-12 17:30N 38°01' W 076°33'5 0.2
2018-May-11 14:02N 38°03' W 076°28'0 6.0
2018-May-11 13:58N 38°03' W 076°28'3 5.7
2018-May-11 13:27N 38°02' W 076°32'2 3.6
2018-May-11 13:00N 38°01' W 076°32'0 0.0
2018-May-10 22:08N 38°01' W 076°32'0 0.0
2018-May-10 21:56N 38°01' W 076°32'1 1.5
2018-May-10 21:10N 38°02' W 076°32'1 4.6
2018-May-10 20:55N 38°02' W 076°31'3 4.8
2018-May-10 20:21N 38°03' W 076°28'2 5.0
2018-May-10 19:55N 38°02' W 076°25'  
2018-May-08 14:13N 38°52' W 076°28'1 4.3
2018-May-08 13:58N 38°52' W 076°29'3 3.5
2018-May-08 13:13N 38°51' W 076°32'0 0.0
2018-May-08 12:57N 38°51' W 076°32'0 0.0
2018-May-07 21:22N 38°51' W 076°32'2 4.4
2018-May-07 21:00N 38°52' W 076°31'3 5.6
2018-May-07 20:30N 38°53' W 076°28'3 6.0
2018-May-07 19:59N 38°55' W 076°24'1 1.6
2018-May-07 19:30N 38°56' W 076°25'2 4.5
2018-May-07 19:00N 38°54' W 076°26'3 5.1
2018-May-07 18:28N 38°52' W 076°29'3 5.4
2018-May-07 17:57N 38°51' W 076°32'  
Track history (hours):
 
Tides and Currents Weather Stations Pressure Air Temp Water Temp Dewpoint Dewpoint Depression Visibility Wind Speed Wind Dir Waves Ship Positions

Alcyone

Owner: MUTO, HIRONAO, LA PALMA, CA. More information available from US FCC via Universal Licensing System and Coast Guard Vessel Documentation Center.

Last reported at 2018-May-14 21:17 UTC. Time now 2018-Jun-22 01:25 UTC.
Position N 38°51' W 076°32'.
Warning: this ship's position is 38 days out of date.

Type: Pleasure craft. MMSI: 338071737.

Date/timePositionNaut miles runAvg speedWind from/ knotsBaromVisibWave heightAir tempDewpointWater temp
2018-May-14 21:17N 38°51' W 076°32'1 2.3
2018-May-14 21:00N 38°51' W 076°32'3 5.6
2018-May-14 20:31N 38°52' W 076°29'50 1.6
2018-May-13 14:02N 38°02' W 076°24'2 5.0
2018-May-13 13:41N 38°03' W 076°27'2 5.2
2018-May-13 13:19N 38°03' W 076°29'2 5.4
2018-May-13 12:54N 38°02' W 076°32'1 3.7
2018-May-13 12:30N 38°01' W 076°32'0 0.0
2018-May-12 17:44N 38°01' W 076°33'0 0.1
2018-May-12 17:30N 38°01' W 076°33'5 0.2
2018-May-11 14:02N 38°03' W 076°28'0 6.0
2018-May-11 13:58N 38°03' W 076°28'3 5.7
2018-May-11 13:27N 38°02' W 076°32'2 3.6
2018-May-11 13:00N 38°01' W 076°32'0 0.0
2018-May-10 22:08N 38°01' W 076°32'0 0.0
2018-May-10 21:56N 38°01' W 076°32'1 1.5
2018-May-10 21:10N 38°02' W 076°32'1 4.6
2018-May-10 20:55N 38°02' W 076°31'3 4.8
2018-May-10 20:21N 38°03' W 076°28'2 5.0
2018-May-10 19:55N 38°02' W 076°25'  
2018-May-08 14:13N 38°52' W 076°28'1 4.3
2018-May-08 13:58N 38°52' W 076°29'3 3.5
2018-May-08 13:13N 38°51' W 076°32'0 0.0
2018-May-08 12:57N 38°51' W 076°32'0 0.0
2018-May-07 21:22N 38°51' W 076°32'2 4.4
2018-May-07 21:00N 38°52' W 076°31'3 5.6
2018-May-07 20:30N 38°53' W 076°28'3 6.0
2018-May-07 19:59N 38°55' W 076°24'1 1.6
2018-May-07 19:30N 38°56' W 076°25'2 4.5
2018-May-07 19:00N 38°54' W 076°26'3 5.1
2018-May-07 18:28N 38°52' W 076°29'3 5.4
2018-May-07 17:57N 38°51' W 076°32'  

Dump ship's entire track history